sensor_id;sensor_type;location;lat;lon;timestamp;P1;durP1;ratioP1;P2;durP2;ratioP2
74753;SDS011;63271;53.340;-6.260;2023-07-09T06:01:08;24.85;;;2.75;;
74753;SDS011;63271;53.340;-6.260;2023-07-09T06:03:34;17.85;;;2.72;;
74753;SDS011;63271;53.340;-6.260;2023-07-09T06:05:59;20.20;;;2.70;;
74753;SDS011;63271;53.340;-6.260;2023-07-09T06:08:27;22.35;;;3.67;;
74753;SDS011;63271;53.340;-6.260;2023-07-09T06:10:53;20.42;;;3.05;;
74753;SDS011;63271;53.340;-6.260;2023-07-09T06:13:20;14.70;;;2.97;;
74753;SDS011;63271;53.340;-6.260;2023-07-09T06:15:46;15.02;;;2.75;;
74753;SDS011;63271;53.340;-6.260;2023-07-09T06:18:13;17.35;;;3.25;;
74753;SDS011;63271;53.340;-6.260;2023-07-09T06:20:38;16.58;;;2.88;;
74753;SDS011;63271;53.340;-6.260;2023-07-09T06:23:07;22.80;;;3.17;;
74753;SDS011;63271;53.340;-6.260;2023-07-09T06:25:33;25.15;;;2.50;;
74753;SDS011;63271;53.340;-6.260;2023-07-09T06:28:00;26.88;;;2.75;;
74753;SDS011;63271;53.340;-6.260;2023-07-09T06:30:28;14.90;;;2.55;;
74753;SDS011;63271;53.340;-6.260;2023-07-09T06:32:54;20.52;;;3.17;;
74753;SDS011;63271;53.340;-6.260;2023-07-09T06:35:19;15.98;;;2.97;;
74753;SDS011;63271;53.340;-6.260;2023-07-09T06:37:47;16.35;;;2.78;;
74753;SDS011;63271;53.340;-6.260;2023-07-09T06:40:13;13.00;;;2.53;;
74753;SDS011;63271;53.340;-6.260;2023-07-09T06:42:41;18.45;;;3.08;;
74753;SDS011;63271;53.340;-6.260;2023-07-09T06:45:06;24.30;;;3.28;;
74753;SDS011;63271;53.340;-6.260;2023-07-09T06:47:32;25.45;;;5.28;;
74753;SDS011;63271;53.340;-6.260;2023-07-09T06:49:57;20.70;;;4.13;;
74753;SDS011;63271;53.340;-6.260;2023-07-09T06:52:23;23.65;;;3.50;;
74753;SDS011;63271;53.340;-6.260;2023-07-09T06:54:50;27.88;;;4.40;;
74753;SDS011;63271;53.340;-6.260;2023-07-09T06:57:16;26.67;;;3.08;;
74753;SDS011;63271;53.340;-6.260;2023-07-09T06:59:41;18.73;;;2.55;;
74753;SDS011;63271;53.340;-6.260;2023-07-09T07:02:07;22.48;;;3.55;;
74753;SDS011;63271;53.340;-6.260;2023-07-09T07:04:35;22.63;;;3.20;;
74753;SDS011;63271;53.340;-6.260;2023-07-09T07:07:01;20.10;;;3.55;;
74753;SDS011;63271;53.340;-6.260;2023-07-09T07:09:26;20.80;;;3.47;;
74753;SDS011;63271;53.340;-6.260;2023-07-09T07:11:54;19.38;;;3.38;;
74753;SDS011;63271;53.340;-6.260;2023-07-09T07:14:19;17.73;;;3.20;;
74753;SDS011;63271;53.340;-6.260;2023-07-09T07:16:48;15.82;;;2.42;;
74753;SDS011;63271;53.340;-6.260;2023-07-09T07:19:14;21.17;;;3.15;;
74753;SDS011;63271;53.340;-6.260;2023-07-09T07:21:40;22.88;;;3.50;;
74753;SDS011;63271;53.340;-6.260;2023-07-09T07:24:05;18.45;;;3.55;;
74753;SDS011;63271;53.340;-6.260;2023-07-09T07:26:33;18.52;;;2.85;;
74753;SDS011;63271;53.340;-6.260;2023-07-09T07:29:04;17.35;;;3.17;;
74753;SDS011;63271;53.340;-6.260;2023-07-09T07:31:32;22.55;;;3.30;;
74753;SDS011;63271;53.340;-6.260;2023-07-09T07:33:57;20.48;;;3.60;;
74753;SDS011;63271;53.340;-6.260;2023-07-09T07:36:23;19.85;;;3.35;;
74753;SDS011;63271;53.340;-6.260;2023-07-09T07:38:48;16.90;;;2.75;;
74753;SDS011;63271;53.340;-6.260;2023-07-09T07:41:13;18.30;;;2.88;;
74753;SDS011;63271;53.340;-6.260;2023-07-09T07:43:39;20.38;;;3.60;;
74753;SDS011;63271;53.340;-6.260;2023-07-09T07:46:05;19.17;;;2.95;;
74753;SDS011;63271;53.340;-6.260;2023-07-09T07:48:32;29.35;;;4.30;;
74753;SDS011;63271;53.340;-6.260;2023-07-09T07:51:01;27.45;;;4.32;;
74753;SDS011;63271;53.340;-6.260;2023-07-09T07:53:32;23.25;;;3.72;;
74753;SDS011;63271;53.340;-6.260;2023-07-09T07:55:57;21.17;;;4.15;;
74753;SDS011;63271;53.340;-6.260;2023-07-09T07:58:23;19.63;;;3.60;;
74753;SDS011;63271;53.340;-6.260;2023-07-09T08:00:54;23.30;;;3.72;;
74753;SDS011;63271;53.340;-6.260;2023-07-09T08:03:20;26.70;;;5.43;;
74753;SDS011;63271;53.340;-6.260;2023-07-09T08:05:48;28.02;;;6.05;;
74753;SDS011;63271;53.340;-6.260;2023-07-09T08:08:16;29.70;;;5.45;;
74753;SDS011;63271;53.340;-6.260;2023-07-09T08:10:44;28.10;;;4.32;;
74753;SDS011;63271;53.340;-6.260;2023-07-09T08:13:10;36.53;;;4.47;;
74753;SDS011;63271;53.340;-6.260;2023-07-09T08:15:40;28.63;;;5.25;;
74753;SDS011;63271;53.340;-6.260;2023-07-09T08:18:10;33.00;;;5.22;;
74753;SDS011;63271;53.340;-6.260;2023-07-09T08:20:42;27.60;;;4.95;;
74753;SDS011;63271;53.340;-6.260;2023-07-09T08:23:08;33.15;;;5.63;;
74753;SDS011;63271;53.340;-6.260;2023-07-09T08:25:34;31.48;;;4.60;;
74753;SDS011;63271;53.340;-6.260;2023-07-09T08:27:59;25.55;;;4.55;;
74753;SDS011;63271;53.340;-6.260;2023-07-09T08:30:24;24.58;;;4.43;;
74753;SDS011;63271;53.340;-6.260;2023-07-09T08:32:50;25.80;;;3.85;;
74753;SDS011;63271;53.340;-6.260;2023-07-09T08:35:15;31.58;;;4.15;;
74753;SDS011;63271;53.340;-6.260;2023-07-09T08:37:41;28.33;;;4.78;;
74753;SDS011;63271;53.340;-6.260;2023-07-09T08:40:09;23.90;;;4.50;;
74753;SDS011;63271;53.340;-6.260;2023-07-09T08:42:42;23.92;;;4.32;;
74753;SDS011;63271;53.340;-6.260;2023-07-09T08:50:36;16.05;;;2.65;;
74753;SDS011;63271;53.340;-6.260;2023-07-09T08:53:07;13.88;;;2.45;;
74753;SDS011;63271;53.340;-6.260;2023-07-09T08:55:39;14.77;;;3.55;;
74753;SDS011;63271;53.340;-6.260;2023-07-09T08:58:29;11.93;;;2.17;;
74753;SDS011;63271;53.340;-6.260;2023-07-09T09:06:14;10.30;;;1.92;;
74753;SDS011;63271;53.340;-6.260;2023-07-09T09:11:49;13.18;;;2.00;;
74753;SDS011;63271;53.340;-6.260;2023-07-09T09:14:29;14.77;;;2.08;;
74753;SDS011;63271;53.340;-6.260;2023-07-09T09:17:01;13.52;;;2.28;;
74753;SDS011;63271;53.340;-6.260;2023-07-09T09:19:33;11.90;;;1.77;;
74753;SDS011;63271;53.340;-6.260;2023-07-09T09:22:05;9.85;;;1.73;;
74753;SDS011;63271;53.340;-6.260;2023-07-09T09:24:38;9.63;;;1.98;;
74753;SDS011;63271;53.340;-6.260;2023-07-09T09:27:12;8.35;;;1.77;;
74753;SDS011;63271;53.340;-6.260;2023-07-09T09:29:43;6.82;;;1.60;;
74753;SDS011;63271;53.340;-6.260;2023-07-09T09:32:18;9.00;;;1.58;;
74753;SDS011;63271;53.340;-6.260;2023-07-09T09:34:56;9.50;;;1.92;;
74753;SDS011;63271;53.340;-6.260;2023-07-09T09:37:30;14.48;;;2.35;;
74753;SDS011;63271;53.340;-6.260;2023-07-09T09:39:57;16.20;;;1.90;;
74753;SDS011;63271;53.340;-6.260;2023-07-09T09:42:24;11.52;;;2.20;;
74753;SDS011;63271;53.340;-6.260;2023-07-09T09:44:50;11.07;;;1.88;;
74753;SDS011;63271;53.340;-6.260;2023-07-09T09:47:18;19.85;;;2.95;;
74753;SDS011;63271;53.340;-6.260;2023-07-09T09:49:44;13.68;;;2.42;;
74753;SDS011;63271;53.340;-6.260;2023-07-09T09:52:13;18.15;;;3.85;;
74753;SDS011;63271;53.340;-6.260;2023-07-09T09:54:40;12.35;;;2.38;;
74753;SDS011;63271;53.340;-6.260;2023-07-09T09:57:18;14.35;;;2.50;;
74753;SDS011;63271;53.340;-6.260;2023-07-09T09:59:45;19.02;;;3.45;;
74753;SDS011;63271;53.340;-6.260;2023-07-09T10:02:23;23.08;;;3.35;;
74753;SDS011;63271;53.340;-6.260;2023-07-09T10:04:54;11.80;;;2.10;;
74753;SDS011;63271;53.340;-6.260;2023-07-09T10:07:32;17.23;;;3.03;;
74753;SDS011;63271;53.340;-6.260;2023-07-09T10:10:08;16.40;;;3.20;;
74753;SDS011;63271;53.340;-6.260;2023-07-09T10:15:34;15.60;;;3.03;;
74753;SDS011;63271;53.340;-6.260;2023-07-09T10:23:47;13.35;;;2.17;;
74753;SDS011;63271;53.340;-6.260;2023-07-09T10:26:21;13.50;;;2.33;;
74753;SDS011;63271;53.340;-6.260;2023-07-09T10:37:21;11.98;;;2.40;;
74753;SDS011;63271;53.340;-6.260;2023-07-09T10:39:49;10.82;;;2.25;;
74753;SDS011;63271;53.340;-6.260;2023-07-09T10:42:41;15.13;;;2.00;;
74753;SDS011;63271;53.340;-6.260;2023-07-09T10:45:10;11.63;;;2.20;;
74753;SDS011;63271;53.340;-6.260;2023-07-09T10:47:37;7.05;;;1.60;;
74753;SDS011;63271;53.340;-6.260;2023-07-09T10:50:04;12.05;;;2.38;;
74753;SDS011;63271;53.340;-6.260;2023-07-09T10:52:34;15.05;;;2.53;;
74753;SDS011;63271;53.340;-6.260;2023-07-09T10:58:11;11.82;;;2.08;;
74753;SDS011;63271;53.340;-6.260;2023-07-09T11:00:46;8.65;;;1.83;;
74753;SDS011;63271;53.340;-6.260;2023-07-09T11:05:43;13.43;;;2.63;;
74753;SDS011;63271;53.340;-6.260;2023-07-09T11:08:19;11.02;;;2.30;;
74753;SDS011;63271;53.340;-6.260;2023-07-09T11:11:09;8.95;;;2.33;;
74753;SDS011;63271;53.340;-6.260;2023-07-09T11:16:05;9.35;;;1.60;;
74753;SDS011;63271;53.340;-6.260;2023-07-09T11:18:32;11.77;;;2.28;;
74753;SDS011;63271;53.340;-6.260;2023-07-09T11:21:04;11.70;;;2.05;;
74753;SDS011;63271;53.340;-6.260;2023-07-09T11:23:46;13.73;;;2.15;;
74753;SDS011;63271;53.340;-6.260;2023-07-09T11:26:35;10.98;;;2.20;;
74753;SDS011;63271;53.340;-6.260;2023-07-09T11:36:32;9.35;;;2.35;;
74753;SDS011;63271;53.340;-6.260;2023-07-09T11:39:01;10.77;;;1.83;;
74753;SDS011;63271;53.340;-6.260;2023-07-09T11:41:29;13.20;;;2.78;;
74753;SDS011;63271;53.340;-6.260;2023-07-09T11:49:58;10.52;;;2.45;;
74753;SDS011;63271;53.340;-6.260;2023-07-09T11:52:36;9.52;;;1.92;;
74753;SDS011;63271;53.340;-6.260;2023-07-09T11:57:50;11.98;;;1.92;;
74753;SDS011;63271;53.340;-6.260;2023-07-09T12:00:18;10.00;;;2.10;;
74753;SDS011;63271;53.340;-6.260;2023-07-09T12:02:45;12.57;;;1.80;;
74753;SDS011;63271;53.340;-6.260;2023-07-09T12:05:11;6.15;;;1.65;;
74753;SDS011;63271;53.340;-6.260;2023-07-09T12:07:39;6.57;;;1.50;;
74753;SDS011;63271;53.340;-6.260;2023-07-09T12:10:24;5.78;;;1.55;;
74753;SDS011;63271;53.340;-6.260;2023-07-09T12:12:55;7.07;;;1.40;;
74753;SDS011;63271;53.340;-6.260;2023-07-09T12:15:26;8.27;;;1.88;;
74753;SDS011;63271;53.340;-6.260;2023-07-09T12:17:57;9.23;;;1.60;;
74753;SDS011;63271;53.340;-6.260;2023-07-09T12:22:56;7.50;;;2.25;;
74753;SDS011;63271;53.340;-6.260;2023-07-09T12:25:27;8.60;;;1.95;;
74753;SDS011;63271;53.340;-6.260;2023-07-09T12:27:55;9.65;;;2.50;;
74753;SDS011;63271;53.340;-6.260;2023-07-09T12:30:23;8.23;;;1.65;;
74753;SDS011;63271;53.340;-6.260;2023-07-09T12:32:49;9.52;;;2.10;;
74753;SDS011;63271;53.340;-6.260;2023-07-09T12:35:17;7.22;;;1.60;;
74753;SDS011;63271;53.340;-6.260;2023-07-09T12:37:46;7.65;;;1.80;;
74753;SDS011;63271;53.340;-6.260;2023-07-09T12:40:27;6.50;;;2.00;;
74753;SDS011;63271;53.340;-6.260;2023-07-09T12:42:54;8.00;;;1.52;;
74753;SDS011;63271;53.340;-6.260;2023-07-09T12:45:25;8.85;;;1.92;;
74753;SDS011;63271;53.340;-6.260;2023-07-09T12:47:50;9.13;;;2.08;;
74753;SDS011;63271;53.340;-6.260;2023-07-09T12:50:21;9.70;;;2.08;;
74753;SDS011;63271;53.340;-6.260;2023-07-09T12:53:03;11.35;;;2.25;;
74753;SDS011;63271;53.340;-6.260;2023-07-09T12:55:51;9.40;;;2.17;;
74753;SDS011;63271;53.340;-6.260;2023-07-09T12:58:27;9.95;;;1.80;;
74753;SDS011;63271;53.340;-6.260;2023-07-09T13:00:54;9.75;;;2.25;;
74753;SDS011;63271;53.340;-6.260;2023-07-09T13:03:24;12.13;;;2.80;;
74753;SDS011;63271;53.340;-6.260;2023-07-09T13:06:00;4.80;;;1.63;;
74753;SDS011;63271;53.340;-6.260;2023-07-09T13:08:29;5.95;;;1.77;;
74753;SDS011;63271;53.340;-6.260;2023-07-09T13:10:56;6.75;;;1.65;;
74753;SDS011;63271;53.340;-6.260;2023-07-09T13:13:24;6.95;;;1.52;;
74753;SDS011;63271;53.340;-6.260;2023-07-09T13:15:57;9.27;;;1.98;;
74753;SDS011;63271;53.340;-6.260;2023-07-09T13:18:26;6.38;;;1.30;;
74753;SDS011;63271;53.340;-6.260;2023-07-09T13:20:56;4.78;;;1.20;;
74753;SDS011;63271;53.340;-6.260;2023-07-09T13:23:25;5.22;;;1.30;;
74753;SDS011;63271;53.340;-6.260;2023-07-09T13:25:52;6.18;;;1.27;;
74753;SDS011;63271;53.340;-6.260;2023-07-09T13:30:48;5.93;;;0.90;;
74753;SDS011;63271;53.340;-6.260;2023-07-09T13:33:18;4.13;;;1.27;;
74753;SDS011;63271;53.340;-6.260;2023-07-09T13:35:44;6.63;;;1.75;;
74753;SDS011;63271;53.340;-6.260;2023-07-09T13:38:18;6.55;;;1.23;;
74753;SDS011;63271;53.340;-6.260;2023-07-09T13:40:49;8.20;;;1.45;;
74753;SDS011;63271;53.340;-6.260;2023-07-09T13:43:34;5.28;;;1.17;;
74753;SDS011;63271;53.340;-6.260;2023-07-09T13:46:02;3.55;;;1.00;;
74753;SDS011;63271;53.340;-6.260;2023-07-09T13:48:34;4.32;;;1.30;;
74753;SDS011;63271;53.340;-6.260;2023-07-09T13:51:00;8.60;;;1.80;;
74753;SDS011;63271;53.340;-6.260;2023-07-09T13:53:31;4.80;;;1.38;;
74753;SDS011;63271;53.340;-6.260;2023-07-09T13:55:57;3.85;;;1.40;;
74753;SDS011;63271;53.340;-6.260;2023-07-09T13:58:26;5.45;;;1.10;;
74753;SDS011;63271;53.340;-6.260;2023-07-09T14:00:55;3.60;;;0.98;;
74753;SDS011;63271;53.340;-6.260;2023-07-09T14:03:26;7.55;;;1.92;;
74753;SDS011;63271;53.340;-6.260;2023-07-09T14:05:56;4.55;;;1.25;;
74753;SDS011;63271;53.340;-6.260;2023-07-09T14:08:21;6.82;;;1.23;;
74753;SDS011;63271;53.340;-6.260;2023-07-09T14:10:47;9.18;;;1.48;;
74753;SDS011;63271;53.340;-6.260;2023-07-09T14:13:15;5.63;;;1.63;;
74753;SDS011;63271;53.340;-6.260;2023-07-09T14:15:44;4.88;;;1.13;;
74753;SDS011;63271;53.340;-6.260;2023-07-09T14:18:14;7.68;;;1.45;;
74753;SDS011;63271;53.340;-6.260;2023-07-09T14:20:43;7.10;;;1.10;;
74753;SDS011;63271;53.340;-6.260;2023-07-09T14:23:13;4.32;;;1.00;;
74753;SDS011;63271;53.340;-6.260;2023-07-09T14:25:43;5.93;;;2.22;;
74753;SDS011;63271;53.340;-6.260;2023-07-09T14:28:13;3.10;;;1.08;;
74753;SDS011;63271;53.340;-6.260;2023-07-09T14:30:42;7.28;;;1.30;;
74753;SDS011;63271;53.340;-6.260;2023-07-09T14:33:14;7.07;;;1.77;;
74753;SDS011;63271;53.340;-6.260;2023-07-09T14:35:42;5.93;;;1.83;;
74753;SDS011;63271;53.340;-6.260;2023-07-09T14:38:16;6.25;;;1.13;;
74753;SDS011;63271;53.340;-6.260;2023-07-09T14:40:44;7.97;;;1.83;;
74753;SDS011;63271;53.340;-6.260;2023-07-09T14:43:12;4.20;;;1.35;;
74753;SDS011;63271;53.340;-6.260;2023-07-09T14:45:40;8.75;;;1.20;;
74753;SDS011;63271;53.340;-6.260;2023-07-09T14:48:10;4.25;;;1.20;;
74753;SDS011;63271;53.340;-6.260;2023-07-09T14:50:37;9.00;;;1.70;;
74753;SDS011;63271;53.340;-6.260;2023-07-09T14:53:03;7.38;;;1.20;;
74753;SDS011;63271;53.340;-6.260;2023-07-09T14:55:33;9.32;;;2.00;;
74753;SDS011;63271;53.340;-6.260;2023-07-09T14:57:59;4.82;;;1.42;;
74753;SDS011;63271;53.340;-6.260;2023-07-09T15:00:25;6.13;;;1.33;;
74753;SDS011;63271;53.340;-6.260;2023-07-09T15:02:51;6.93;;;1.70;;
74753;SDS011;63271;53.340;-6.260;2023-07-09T15:05:19;5.03;;;1.10;;
74753;SDS011;63271;53.340;-6.260;2023-07-09T15:07:46;8.70;;;1.48;;
74753;SDS011;63271;53.340;-6.260;2023-07-09T15:10:12;3.13;;;1.05;;
74753;SDS011;63271;53.340;-6.260;2023-07-09T15:12:43;5.57;;;1.27;;
74753;SDS011;63271;53.340;-6.260;2023-07-09T15:15:17;6.10;;;1.15;;
74753;SDS011;63271;53.340;-6.260;2023-07-09T15:17:46;1.70;;;0.75;;
74753;SDS011;63271;53.340;-6.260;2023-07-09T15:20:12;3.25;;;1.50;;
74753;SDS011;63271;53.340;-6.260;2023-07-09T15:22:49;5.65;;;1.60;;
74753;SDS011;63271;53.340;-6.260;2023-07-09T15:25:21;2.80;;;0.93;;
74753;SDS011;63271;53.340;-6.260;2023-07-09T15:27:49;6.95;;;1.20;;
74753;SDS011;63271;53.340;-6.260;2023-07-09T15:30:15;4.70;;;1.30;;
74753;SDS011;63271;53.340;-6.260;2023-07-09T15:32:44;4.65;;;0.98;;
74753;SDS011;63271;53.340;-6.260;2023-07-09T15:35:09;4.80;;;1.10;;
74753;SDS011;63271;53.340;-6.260;2023-07-09T15:37:35;1.77;;;0.80;;
74753;SDS011;63271;53.340;-6.260;2023-07-09T15:40:05;5.53;;;0.85;;
74753;SDS011;63271;53.340;-6.260;2023-07-09T15:42:41;5.85;;;1.30;;
74753;SDS011;63271;53.340;-6.260;2023-07-09T15:45:12;4.38;;;1.52;;
74753;SDS011;63271;53.340;-6.260;2023-07-09T15:47:38;12.25;;;3.90;;
74753;SDS011;63271;53.340;-6.260;2023-07-09T15:50:09;2.63;;;0.80;;
74753;SDS011;63271;53.340;-6.260;2023-07-09T15:52:44;5.57;;;1.08;;
74753;SDS011;63271;53.340;-6.260;2023-07-09T15:55:16;3.47;;;0.80;;
74753;SDS011;63271;53.340;-6.260;2023-07-09T15:57:46;6.45;;;1.17;;
74753;SDS011;63271;53.340;-6.260;2023-07-09T16:00:31;3.00;;;0.93;;
74753;SDS011;63271;53.340;-6.260;2023-07-09T16:02:58;5.82;;;1.10;;
74753;SDS011;63271;53.340;-6.260;2023-07-09T16:05:28;6.55;;;1.02;;
74753;SDS011;63271;53.340;-6.260;2023-07-09T16:08:00;5.53;;;1.20;;
74753;SDS011;63271;53.340;-6.260;2023-07-09T16:10:26;5.28;;;1.00;;
74753;SDS011;63271;53.340;-6.260;2023-07-09T16:12:56;4.53;;;1.02;;
74753;SDS011;63271;53.340;-6.260;2023-07-09T16:15:22;5.63;;;1.20;;
74753;SDS011;63271;53.340;-6.260;2023-07-09T16:17:51;4.38;;;0.98;;
74753;SDS011;63271;53.340;-6.260;2023-07-09T16:20:18;5.22;;;1.10;;
74753;SDS011;63271;53.340;-6.260;2023-07-09T16:22:51;3.40;;;0.82;;
74753;SDS011;63271;53.340;-6.260;2023-07-09T16:25:29;4.65;;;1.40;;
74753;SDS011;63271;53.340;-6.260;2023-07-09T16:28:00;4.70;;;1.02;;
74753;SDS011;63271;53.340;-6.260;2023-07-09T16:30:27;5.35;;;0.98;;
74753;SDS011;63271;53.340;-6.260;2023-07-09T16:32:56;5.32;;;1.17;;
74753;SDS011;63271;53.340;-6.260;2023-07-09T16:35:30;5.07;;;1.10;;
74753;SDS011;63271;53.340;-6.260;2023-07-09T16:37:55;11.48;;;8.07;;
74753;SDS011;63271;53.340;-6.260;2023-07-09T16:40:22;2.58;;;1.08;;
74753;SDS011;63271;53.340;-6.260;2023-07-09T16:42:49;14.93;;;7.95;;
74753;SDS011;63271;53.340;-6.260;2023-07-09T16:45:16;1.95;;;0.80;;
74753;SDS011;63271;53.340;-6.260;2023-07-09T16:47:45;5.85;;;1.42;;
74753;SDS011;63271;53.340;-6.260;2023-07-09T16:50:15;1.67;;;0.68;;
74753;SDS011;63271;53.340;-6.260;2023-07-09T16:52:42;3.90;;;0.95;;
74753;SDS011;63271;53.340;-6.260;2023-07-09T16:55:12;6.35;;;0.90;;
74753;SDS011;63271;53.340;-6.260;2023-07-09T16:57:39;1.85;;;0.80;;
74753;SDS011;63271;53.340;-6.260;2023-07-09T17:02:56;5.47;;;1.23;;
74753;SDS011;63271;53.340;-6.260;2023-07-09T17:05:23;4.93;;;0.85;;
74753;SDS011;63271;53.340;-6.260;2023-07-09T17:07:49;4.85;;;1.13;;
74753;SDS011;63271;53.340;-6.260;2023-07-09T17:10:15;5.95;;;1.40;;
74753;SDS011;63271;53.340;-6.260;2023-07-09T17:12:43;8.20;;;1.73;;
74753;SDS011;63271;53.340;-6.260;2023-07-09T17:17:45;4.57;;;1.00;;
74753;SDS011;63271;53.340;-6.260;2023-07-09T17:20:13;4.43;;;1.13;;
74753;SDS011;63271;53.340;-6.260;2023-07-09T17:22:39;5.10;;;1.00;;
74753;SDS011;63271;53.340;-6.260;2023-07-09T17:25:12;3.47;;;0.93;;
74753;SDS011;63271;53.340;-6.260;2023-07-09T17:27:44;3.22;;;0.85;;
74753;SDS011;63271;53.340;-6.260;2023-07-09T17:30:12;4.88;;;0.75;;
74753;SDS011;63271;53.340;-6.260;2023-07-09T17:32:39;6.22;;;1.70;;
74753;SDS011;63271;53.340;-6.260;2023-07-09T17:35:08;5.57;;;1.17;;
74753;SDS011;63271;53.340;-6.260;2023-07-09T17:37:40;3.10;;;0.80;;
74753;SDS011;63271;53.340;-6.260;2023-07-09T17:40:17;7.45;;;1.30;;
74753;SDS011;63271;53.340;-6.260;2023-07-09T17:42:46;3.95;;;1.17;;
74753;SDS011;63271;53.340;-6.260;2023-07-09T17:45:13;2.80;;;1.10;;
74753;SDS011;63271;53.340;-6.260;2023-07-09T17:47:41;8.27;;;1.25;;
74753;SDS011;63271;53.340;-6.260;2023-07-09T17:50:14;8.95;;;1.42;;
74753;SDS011;63271;53.340;-6.260;2023-07-09T17:52:41;4.70;;;1.25;;
74753;SDS011;63271;53.340;-6.260;2023-07-09T17:55:06;8.93;;;1.50;;
74753;SDS011;63271;53.340;-6.260;2023-07-09T17:57:32;3.65;;;1.23;;
74753;SDS011;63271;53.340;-6.260;2023-07-09T17:59:57;9.18;;;1.30;;
74753;SDS011;63271;53.340;-6.260;2023-07-09T18:02:27;5.25;;;1.33;;
74753;SDS011;63271;53.340;-6.260;2023-07-09T18:04:55;3.05;;;1.20;;
74753;SDS011;63271;53.340;-6.260;2023-07-09T18:09:55;5.53;;;1.05;;
74753;SDS011;63271;53.340;-6.260;2023-07-09T18:12:27;9.98;;;1.35;;
74753;SDS011;63271;53.340;-6.260;2023-07-09T18:14:54;5.53;;;1.02;;
74753;SDS011;63271;53.340;-6.260;2023-07-09T18:17:42;3.58;;;1.13;;
74753;SDS011;63271;53.340;-6.260;2023-07-09T18:20:10;4.55;;;1.20;;
74753;SDS011;63271;53.340;-6.260;2023-07-09T18:22:45;4.10;;;0.98;;
74753;SDS011;63271;53.340;-6.260;2023-07-09T18:25:10;5.68;;;1.10;;
74753;SDS011;63271;53.340;-6.260;2023-07-09T18:27:43;4.80;;;1.48;;
74753;SDS011;63271;53.340;-6.260;2023-07-09T18:30:19;10.02;;;1.88;;
74753;SDS011;63271;53.340;-6.260;2023-07-09T18:32:49;6.00;;;0.90;;
74753;SDS011;63271;53.340;-6.260;2023-07-09T18:37:52;6.82;;;1.35;;
74753;SDS011;63271;53.340;-6.260;2023-07-09T18:40:22;6.68;;;1.65;;
74753;SDS011;63271;53.340;-6.260;2023-07-09T18:42:51;2.80;;;0.90;;
74753;SDS011;63271;53.340;-6.260;2023-07-09T18:45:17;4.47;;;1.25;;
74753;SDS011;63271;53.340;-6.260;2023-07-09T18:47:45;6.20;;;1.75;;
74753;SDS011;63271;53.340;-6.260;2023-07-09T18:50:25;7.00;;;2.45;;
74753;SDS011;63271;53.340;-6.260;2023-07-09T18:52:56;6.07;;;1.30;;
74753;SDS011;63271;53.340;-6.260;2023-07-09T18:55:25;6.72;;;1.50;;
74753;SDS011;63271;53.340;-6.260;2023-07-09T18:57:52;4.57;;;1.73;;
74753;SDS011;63271;53.340;-6.260;2023-07-09T19:00:21;7.75;;;1.58;;
